Terminal Aerodrome Forecast
Issued by NWS

Home | Current Version | Previous Version | Text Only | Print | Product List | Glossary On
Versions: 1 2 3 4 5 6 7 8 9 10 11 12 13 14 15 16 17
000
FTUS43 KLSX 211700
TAFUIN
TAF
KUIN 211720Z 2118/2218 32012G22KT P6SM SCT040
     FM220100 33004KT P6SM SKC
     FM221200 36005KT P6SM SKC=

USA.gov is the U.S. government's official web portal to all federal, state and local government web resources and services.